Time;durP1;ratioP1;P1;durP2;ratioP2;P2;SDS_P1;SDS_P2;PMS_P1;PMS_P2;Temp;Humidity;BMP_temperature;BMP_pressure;BME280_temperature;BME280_humidity;BME280_pressure;Samples;Min_cycle;Max_cycle;Signal;HPM_P1;HPM_P2
2022/03/11 00:02:16;;;;;;;13.80;7.20;;;9.30;42.70;;;;;;5114227;28;20076;-63
2022/03/11 00:04:42;;;;;;;12.43;7.35;;;9.30;42.50;;;;;;5114051;28;20028;-64
2022/03/11 00:07:08;;;;;;;13.93;6.75;;;9.30;42.30;;;;;;5114060;28;20032;-63
2022/03/11 00:09:34;;;;;;;14.55;7.38;;;9.30;42.40;;;;;;5113913;28;20028;-64
2022/03/11 00:12:00;;;;;;;14.18;6.88;;;9.30;42.40;;;;;;5113942;28;20019;-63
2022/03/11 00:14:25;;;;;;;15.68;7.32;;;9.20;42.50;;;;;;5113901;28;20024;-63
2022/03/11 00:16:51;;;;;;;13.02;6.75;;;9.20;42.60;;;;;;5113861;28;20509;-64
2022/03/11 00:19:16;;;;;;;13.50;7.28;;;9.20;42.50;;;;;;5113797;28;20057;-64
2022/03/11 00:21:42;;;;;;;16.83;7.18;;;9.20;42.30;;;;;;5113805;28;20047;-63
2022/03/11 00:24:08;;;;;;;15.05;7.35;;;9.20;42.30;;;;;;5113688;28;20111;-64
2022/03/11 00:26:34;;;;;;;12.95;6.57;;;9.20;42.40;;;;;;5113700;28;20088;-63
2022/03/11 00:29:00;;;;;;;14.27;7.65;;;9.20;42.20;;;;;;5113735;28;20023;-63
2022/03/11 00:31:28;;;;;;;16.20;8.40;;;9.20;42.00;;;;;;5113638;28;20017;-63
2022/03/11 00:33:54;;;;;;;14.40;7.28;;;9.20;41.90;;;;;;5113602;28;20028;-63
2022/03/11 00:36:20;;;;;;;14.55;7.20;;;9.30;41.90;;;;;;5113630;28;20030;-63
2022/03/11 00:38:45;;;;;;;13.45;7.05;;;9.30;41.90;;;;;;5113528;28;20107;-63
2022/03/11 00:41:11;;;;;;;14.52;7.75;;;9.20;42.10;;;;;;5113522;28;20032;-63
2022/03/11 00:43:37;;;;;;;14.80;6.88;;;9.20;42.00;;;;;;5113467;28;20035;-63
2022/03/11 00:46:02;;;;;;;14.02;7.75;;;9.20;42.30;;;;;;5113455;28;20031;-63
2022/03/11 00:48:28;;;;;;;13.23;6.95;;;9.20;42.20;;;;;;5113408;28;20165;-63
2022/03/11 00:50:54;;;;;;;12.77;7.78;;;9.20;42.50;;;;;;5113458;28;20063;-63
2022/03/11 00:53:20;;;;;;;12.55;7.00;;;9.20;42.70;;;;;;5113384;28;20024;-63
2022/03/11 00:55:46;;;;;;;14.25;6.63;;;9.30;42.70;;;;;;5114057;28;20020;-63
2022/03/11 00:58:11;;;;;;;13.38;6.45;;;9.30;42.70;;;;;;5119934;28;20047;-64
2022/03/11 01:00:37;;;;;;;16.45;7.72;;;9.20;42.50;;;;;;5120127;28;20479;-64
2022/03/11 01:03:03;;;;;;;15.73;6.95;;;9.20;42.40;;;;;;5120047;28;20047;-63
2022/03/11 01:05:28;;;;;;;15.23;7.35;;;9.20;42.60;;;;;;5120074;28;20032;-64
2022/03/11 01:07:56;;;;;;;15.75;7.40;;;9.30;42.60;;;;;;5102123;28;20046;-63
2022/03/11 01:10:22;;;;;;;15.70;7.63;;;9.30;42.40;;;;;;5120050;28;20032;-63
2022/03/11 01:12:48;;;;;;;17.08;7.97;;;9.20;42.50;;;;;;5119975;28;20042;-63
2022/03/11 01:15:14;;;;;;;13.13;7.38;;;9.20;42.80;;;;;;5119986;28;20045;-63
2022/03/11 01:17:39;;;;;;;12.88;7.00;;;9.10;42.80;;;;;;5119945;28;20050;-63
2022/03/11 01:20:06;;;;;;;15.90;7.68;;;9.10;43.70;;;;;;5120033;28;20024;-63
2022/03/11 01:22:33;;;;;;;13.75;7.00;;;9.00;42.80;;;;;;5119863;28;20028;-63
2022/03/11 01:24:59;;;;;;;15.77;6.97;;;9.10;42.60;;;;;;5119818;28;20045;-63
2022/03/11 01:27:25;;;;;;;14.20;7.80;;;9.00;42.50;;;;;;5119844;28;20153;-63
2022/03/11 01:29:51;;;;;;;13.95;6.85;;;9.00;42.30;;;;;;5119731;28;20043;-64
2022/03/11 01:32:17;;;;;;;16.67;7.68;;;9.00;42.40;;;;;;5119793;28;20020;-63
2022/03/11 01:34:43;;;;;;;14.27;7.32;;;8.90;42.30;;;;;;5119781;28;20024;-64
2022/03/11 01:37:08;;;;;;;14.63;7.30;;;8.80;42.80;;;;;;5119761;28;20036;-64
2022/03/11 01:39:34;;;;;;;16.33;7.95;;;8.90;43.00;;;;;;5119879;28;20016;-63
2022/03/11 01:42:00;;;;;;;13.10;7.35;;;8.80;42.80;;;;;;5119694;28;20036;-63
2022/03/11 01:44:26;;;;;;;17.08;7.50;;;8.70;43.00;;;;;;5119693;28;20032;-63
2022/03/11 01:46:52;;;;;;;14.85;7.47;;;8.70;43.50;;;;;;5119661;28;20024;-63
2022/03/11 01:49:19;;;;;;;13.25;7.50;;;8.60;43.10;;;;;;5119570;28;20035;-64
2022/03/11 01:51:44;;;;;;;16.27;8.10;;;8.60;43.50;;;;;;5119761;28;20024;-64
2022/03/11 01:54:11;;;;;;;12.30;6.90;;;8.60;43.70;;;;;;5119595;28;20094;-63
2022/03/11 01:56:38;;;;;;;14.05;7.35;;;8.60;43.80;;;;;;5101632;28;20034;-63
2022/03/11 01:59:05;;;;;;;12.30;7.00;;;8.70;43.90;;;;;;5119411;28;20044;-63
2022/03/11 02:01:30;;;;;;;15.80;7.68;;;8.60;43.90;;;;;;5119556;28;20047;-63
2022/03/11 02:03:59;;;;;;;15.40;7.65;;;8.60;44.00;;;;;;5119522;28;20024;-64
2022/03/11 02:06:26;;;;;;;13.68;7.15;;;8.60;43.70;;;;;;5119520;28;20028;-63
2022/03/11 02:08:53;;;;;;;19.63;7.85;;;8.60;43.80;;;;;;5115824;28;20031;-63
2022/03/11 02:11:19;;;;;;;15.25;7.85;;;8.50;43.80;;;;;;5116246;28;20030;-63
2022/03/11 02:13:48;;;;;;;17.15;7.80;;;8.50;43.90;;;;;;5116220;28;20020;-63
2022/03/11 02:16:21;;;;;;;16.35;7.57;;;8.50;44.20;;;;;;5116179;28;20012;-64
2022/03/11 02:18:46;;;;;;;;;;;8.50;43.90;;;;;;5116685;28;20107;-64
2022/03/11 02:21:14;;;;;;;12.85;6.90;;;8.40;43.90;;;;;;5116081;28;19908;-63
2022/03/11 02:23:45;;;;;;;14.07;7.95;;;8.40;43.90;;;;;;5115948;28;20031;-64
2022/03/11 02:26:12;;;;;;;16.17;7.05;;;8.20;44.30;;;;;;5116024;28;20035;-64
2022/03/11 02:28:38;;;;;;;15.63;7.88;;;8.10;44.40;;;;;;5116002;28;20061;-64
2022/03/11 02:31:03;;;;;;;17.30;7.40;;;8.20;44.80;;;;;;5115807;28;20028;-64
2022/03/11 02:33:29;;;;;;;19.30;8.30;;;8.20;44.80;;;;;;5115847;28;20024;-63
2022/03/11 02:35:55;;;;;;;15.40;7.15;;;8.10;45.00;;;;;;5115757;28;20028;-64
2022/03/11 02:38:20;;;;;;;17.23;7.30;;;8.10;45.10;;;;;;5115866;28;20024;-64
2022/03/11 02:40:46;;;;;;;16.95;7.93;;;8.10;45.00;;;;;;5115692;28;20082;-63
2022/03/11 02:43:12;;;;;;;15.55;6.82;;;8.10;45.20;;;;;;5115640;28;20031;-63
2022/03/11 02:45:38;;;;;;;13.85;6.63;;;8.10;45.20;;;;;;5115604;28;20032;-63
2022/03/11 02:48:04;;;;;;;12.60;6.47;;;8.10;45.10;;;;;;5097841;28;20020;-63
2022/03/11 02:50:30;;;;;;;12.43;6.38;;;8.10;45.10;;;;;;5115454;28;20028;-63
2022/03/11 02:52:57;;;;;;;13.93;7.25;;;8.10;45.10;;;;;;5097622;28;20035;-63
2022/03/11 02:55:23;;;;;;;13.82;6.63;;;8.10;44.90;;;;;;5115554;28;20020;-63
2022/03/11 02:57:48;;;;;;;13.23;7.05;;;8.10;44.60;;;;;;5115160;28;20059;-64
2022/03/11 03:00:14;;;;;;;17.83;6.97;;;8.10;44.70;;;;;;5115379;28;20032;-63
2022/03/11 03:02:40;;;;;;;17.25;7.53;;;8.00;45.00;;;;;;5115400;28;20368;-63
2022/03/11 03:05:06;;;;;;;14.63;7.60;;;7.90;44.90;;;;;;5115211;28;20028;-64
2022/03/11 03:07:32;;;;;;;14.27;6.82;;;7.90;45.30;;;;;;5097264;28;20027;-63
2022/03/11 03:09:58;;;;;;;13.13;7.18;;;7.90;45.10;;;;;;5115162;28;20032;-63
2022/03/11 03:12:24;;;;;;;13.80;6.85;;;7.90;45.40;;;;;;5115137;28;20021;-63
2022/03/11 03:14:50;;;;;;;14.73;7.00;;;7.80;45.50;;;;;;5097146;28;20058;-63
2022/03/11 03:17:18;;;;;;;14.35;6.47;;;7.70;45.40;;;;;;5114993;28;20111;-63
2022/03/11 03:19:44;;;;;;;15.02;6.72;;;7.70;45.80;;;;;;5114896;28;20028;-64
2022/03/11 03:22:10;;;;;;;13.63;7.00;;;7.70;46.00;;;;;;5114911;28;20024;-63
2022/03/11 03:24:35;;;;;;;14.55;6.68;;;7.70;46.00;;;;;;5114781;28;20035;-63
2022/03/11 03:27:02;;;;;;;16.10;7.75;;;7.70;46.00;;;;;;5114773;28;20032;-63
2022/03/11 03:29:28;;;;;;;12.45;6.95;;;7.70;45.80;;;;;;5114671;28;20417;-63
2022/03/11 03:31:57;;;;;;;13.50;6.82;;;7.70;46.00;;;;;;5114710;28;20054;-63
2022/03/11 03:34:29;;;;;;;14.90;6.78;;;7.70;45.70;;;;;;5114734;28;20020;-63
2022/03/11 03:36:59;;;;;;;19.00;7.63;;;7.60;45.90;;;;;;5114722;28;20020;-63
2022/03/11 03:39:25;;;;;;;13.80;6.63;;;7.60;45.90;;;;;;5114661;28;20038;-63
2022/03/11 03:41:52;;;;;;;17.42;7.43;;;7.60;45.90;;;;;;5114484;28;20036;-63
2022/03/11 03:44:17;;;;;;;13.75;6.78;;;7.50;46.10;;;;;;5114486;28;20020;-63
2022/03/11 03:46:43;;;;;;;15.00;7.25;;;7.50;46.20;;;;;;5114414;28;20032;-63
2022/03/11 03:49:09;;;;;;;10.80;6.10;;;7.50;46.30;;;;;;5114268;28;20085;-63
2022/03/11 03:51:35;;;;;;;12.40;6.60;;;7.50;46.40;;;;;;5114354;28;20020;-63
2022/03/11 03:54:01;;;;;;;12.27;6.30;;;7.50;46.40;;;;;;5114292;28;20083;-63
2022/03/11 03:56:26;;;;;;;11.70;6.30;;;7.40;46.30;;;;;;5114285;28;20051;-63
2022/03/11 03:58:52;;;;;;;15.32;6.25;;;7.40;46.60;;;;;;5096056;28;20064;-63
2022/03/11 04:01:18;;;;;;;11.60;7.07;;;7.40;46.70;;;;;;5114158;28;20039;-63
2022/03/11 04:03:43;;;;;;;14.13;6.85;;;7.30;47.00;;;;;;5114095;28;20105;-63
2022/03/11 04:06:09;;;;;;;13.73;6.25;;;7.30;47.00;;;;;;5114046;28;20070;-63
2022/03/11 04:08:35;;;;;;;15.15;6.90;;;7.20;46.80;;;;;;5114052;28;20095;-63
2022/03/11 04:11:00;;;;;;;11.70;6.55;;;7.30;47.30;;;;;;5113923;28;20036;-63
2022/03/11 04:13:26;;;;;;;11.52;6.80;;;7.30;47.20;;;;;;5113945;28;20028;-64
2022/03/11 04:15:52;;;;;;;12.70;6.65;;;7.30;47.10;;;;;;5113932;28;20032;-63
2022/03/11 04:18:18;;;;;;;14.43;7.13;;;7.40;47.10;;;;;;5113890;28;20028;-63
2022/03/11 04:20:43;;;;;;;14.55;6.50;;;7.30;47.30;;;;;;5113857;28;20034;-63
2022/03/11 04:23:09;;;;;;;14.88;6.75;;;7.30;48.60;;;;;;5113773;28;20038;-64
2022/03/11 04:25:35;;;;;;;14.70;7.35;;;7.30;47.70;;;;;;5113688;28;20020;-63
2022/03/11 04:28:00;;;;;;;17.23;7.70;;;7.30;48.00;;;;;;5113709;28;20039;-63
2022/03/11 04:30:26;;;;;;;12.82;6.93;;;7.30;48.00;;;;;;5113338;28;20027;-63
2022/03/11 04:32:52;;;;;;;12.90;6.22;;;7.30;47.90;;;;;;5113380;28;20047;-63
2022/03/11 04:35:18;;;;;;;12.27;6.45;;;7.30;47.90;;;;;;5113619;28;20039;-63
2022/03/11 04:37:43;;;;;;;12.43;6.40;;;7.30;48.20;;;;;;5113576;28;20027;-63
2022/03/11 04:40:09;;;;;;;15.13;7.22;;;7.30;48.50;;;;;;5113546;28;20036;-63
2022/03/11 04:42:35;;;;;;;11.00;6.57;;;7.20;48.40;;;;;;5113260;28;20038;-63
2022/03/11 04:45:02;;;;;;;10.93;6.07;;;7.20;48.60;;;;;;5113473;28;20059;-63
2022/03/11 04:47:28;;;;;;;14.02;6.88;;;7.20;48.60;;;;;;5113493;28;20035;-63
2022/03/11 04:49:54;;;;;;;15.43;6.80;;;7.30;48.70;;;;;;5113353;28;20024;-63
2022/03/11 04:52:20;;;;;;;13.98;6.18;;;7.20;48.80;;;;;;5113407;28;20088;-64
2022/03/11 04:54:45;;;;;;;12.38;6.55;;;7.20;48.90;;;;;;5113405;28;20020;-63
2022/03/11 04:57:11;;;;;;;14.75;6.45;;;7.20;49.00;;;;;;5113362;28;20029;-63
2022/03/11 04:59:37;;;;;;;12.90;6.50;;;7.10;49.20;;;;;;5113190;28;20059;-64
2022/03/11 05:02:03;;;;;;;14.02;6.72;;;7.10;49.20;;;;;;5113304;28;20046;-63
2022/03/11 05:04:28;;;;;;;15.25;6.80;;;7.10;49.50;;;;;;5113355;28;20036;-63
2022/03/11 05:06:54;;;;;;;13.30;6.15;;;7.10;49.40;;;;;;5113287;28;20039;-63
2022/03/11 05:09:20;;;;;;;13.20;6.93;;;7.10;49.20;;;;;;5113298;28;20092;-63
2022/03/11 05:11:45;;;;;;;15.30;6.75;;;7.10;49.30;;;;;;5113255;28;20028;-63
2022/03/11 05:14:12;;;;;;;15.35;7.57;;;7.10;49.40;;;;;;5113133;28;20083;-63
2022/03/11 05:16:37;;;;;;;13.38;6.28;;;7.20;49.30;;;;;;5113212;28;20107;-63
2022/03/11 05:19:03;;;;;;;18.58;6.90;;;7.20;49.30;;;;;;5113176;28;20028;-63
2022/03/11 05:21:29;;;;;;;15.43;6.70;;;7.20;49.50;;;;;;5113142;28;20032;-63
2022/03/11 05:23:55;;;;;;;12.10;5.68;;;7.20;49.60;;;;;;5113042;28;20028;-63
2022/03/11 05:26:28;;;;;;;14.02;6.97;;;7.20;49.60;;;;;;5113072;28;20032;-63
2022/03/11 05:28:59;;;;;;;14.60;7.47;;;7.20;49.30;;;;;;5113236;28;20375;-63
2022/03/11 05:31:26;;;;;;;12.93;6.05;;;7.20;50.60;;;;;;5113117;28;20028;-63
2022/03/11 05:33:52;;;;;;;15.13;6.60;;;7.20;49.40;;;;;;5113138;28;20016;-63
2022/03/11 05:36:18;;;;;;;12.93;6.47;;;7.20;49.20;;;;;;5113015;28;20012;-63
2022/03/11 05:38:44;;;;;;;11.73;6.43;;;7.20;49.10;;;;;;5112980;28;20048;-63
2022/03/11 05:41:10;;;;;;;13.52;7.10;;;7.20;49.40;;;;;;5112953;28;20035;-63
2022/03/11 05:43:39;;;;;;;14.77;7.35;;;7.20;49.60;;;;;;5114461;28;20036;-63
2022/03/11 05:46:05;;;;;;;10.00;5.25;;;7.20;49.70;;;;;;5116785;28;20035;-63
2022/03/11 05:48:31;;;;;;;12.98;6.30;;;7.10;49.90;;;;;;5116742;28;20049;-63
2022/03/11 05:50:56;;;;;;;10.57;5.30;;;7.20;49.90;;;;;;5116623;28;20083;-63
2022/03/11 05:53:22;;;;;;;12.95;6.72;;;7.10;50.00;;;;;;5116656;28;20024;-63
2022/03/11 05:55:47;;;;;;;12.77;5.95;;;7.10;49.50;;;;;;5116606;28;20021;-63
2022/03/11 05:58:13;;;;;;;14.05;7.22;;;7.00;50.00;;;;;;5116370;28;20056;-63
2022/03/11 06:00:39;;;;;;;20.67;6.38;;;7.10;50.00;;;;;;5116690;28;20044;-63
2022/03/11 06:03:05;;;;;;;15.98;6.88;;;7.10;50.20;;;;;;5116472;28;20020;-63
2022/03/11 06:05:30;;;;;;;13.45;7.40;;;7.10;50.00;;;;;;5116410;28;20111;-63
2022/03/11 06:07:56;;;;;;;13.70;6.65;;;7.10;50.10;;;;;;5116382;28;20028;-63
2022/03/11 06:10:21;;;;;;;13.65;7.07;;;7.10;50.10;;;;;;5116237;28;20043;-63
2022/03/11 06:12:47;;;;;;;14.20;6.30;;;7.10;50.20;;;;;;5116288;28;20027;-63
2022/03/11 06:15:13;;;;;;;12.25;6.65;;;7.10;50.20;;;;;;5116331;28;20528;-63
2022/03/11 06:17:39;;;;;;;20.80;7.78;;;7.10;50.20;;;;;;5116210;28;20023;-63
2022/03/11 06:20:06;;;;;;;14.18;7.10;;;7.10;50.40;;;;;;5116132;28;20095;-63
2022/03/11 06:22:32;;;;;;;13.50;7.65;;;7.10;50.30;;;;;;5116144;28;20024;-63
2022/03/11 06:25:00;;;;;;;15.30;6.53;;;7.10;50.40;;;;;;5115963;28;20096;-63
2022/03/11 06:27:26;;;;;;;18.27;7.63;;;7.10;50.50;;;;;;5115999;28;20024;-63
2022/03/11 06:29:52;;;;;;;16.83;7.03;;;7.10;50.30;;;;;;5115864;28;20028;-63
2022/03/11 06:32:18;;;;;;;15.60;6.80;;;7.10;50.20;;;;;;5115925;28;20031;-63
2022/03/11 06:34:44;;;;;;;11.55;5.72;;;7.10;50.40;;;;;;5115852;28;20051;-63
2022/03/11 06:37:09;;;;;;;18.05;7.43;;;7.10;51.10;;;;;;5115800;28;20496;-63
2022/03/11 06:39:35;;;;;;;15.90;7.00;;;7.10;50.10;;;;;;5115822;28;20020;-63
2022/03/11 06:42:00;;;;;;;15.55;7.50;;;7.10;50.90;;;;;;5115687;28;20039;-63
2022/03/11 06:44:26;;;;;;;11.35;5.72;;;7.10;50.70;;;;;;5115618;28;20029;-63
2022/03/11 06:46:52;;;;;;;18.55;7.68;;;7.10;50.70;;;;;;5115539;28;20027;-63
2022/03/11 06:49:17;;;;;;;10.63;6.00;;;7.10;51.00;;;;;;5115490;28;20020;-63
2022/03/11 06:51:43;;;;;;;15.18;6.32;;;7.10;50.30;;;;;;5115599;28;20455;-63
2022/03/11 06:54:09;;;;;;;14.48;7.32;;;7.20;50.30;;;;;;5114964;28;20032;-63
2022/03/11 06:56:35;;;;;;;17.25;8.25;;;7.20;50.40;;;;;;5115344;28;20040;-63
2022/03/11 06:59:03;;;;;;;14.15;6.85;;;7.30;50.70;;;;;;5115122;28;20048;-63
2022/03/11 07:01:30;;;;;;;15.00;7.65;;;7.20;50.40;;;;;;5115256;28;20048;-63
2022/03/11 07:03:56;;;;;;;15.13;7.20;;;7.30;50.80;;;;;;5115249;28;20028;-63
2022/03/11 07:06:22;;;;;;;16.17;7.05;;;7.20;50.50;;;;;;5115146;28;20028;-63
2022/03/11 07:08:47;;;;;;;15.60;7.05;;;7.20;51.00;;;;;;5115089;28;20039;-63
2022/03/11 07:11:13;;;;;;;15.18;6.38;;;7.30;50.70;;;;;;5097355;28;20028;-63
2022/03/11 07:13:39;;;;;;;17.33;8.98;;;7.30;51.10;;;;;;5115103;28;20028;-63
2022/03/11 07:16:05;;;;;;;16.90;8.13;;;7.40;51.20;;;;;;5114805;28;20073;-63
2022/03/11 07:18:31;;;;;;;11.40;6.32;;;7.30;50.60;;;;;;5114938;28;20031;-63
2022/03/11 07:20:56;;;;;;;15.60;6.07;;;7.30;50.40;;;;;;5096972;28;20024;-63
2022/03/11 07:23:23;;;;;;;16.33;8.05;;;7.40;50.30;;;;;;5114897;28;20122;-63
2022/03/11 07:25:50;;;;;;;12.55;7.20;;;7.40;51.40;;;;;;5114806;28;20032;-62
2022/03/11 07:28:16;;;;;;;14.05;6.75;;;7.40;51.10;;;;;;5114810;28;20028;-63
2022/03/11 07:30:41;;;;;;;17.13;8.13;;;7.50;51.30;;;;;;5114705;28;20048;-63
2022/03/11 07:33:11;;;;;;;19.80;9.23;;;7.50;50.80;;;;;;5114863;28;20028;-63
2022/03/11 07:35:36;;;;;;;15.73;7.13;;;7.60;50.70;;;;;;5114731;28;20481;-63
2022/03/11 07:38:02;;;;;;;10.60;5.65;;;7.60;49.70;;;;;;5114621;28;20016;-63
2022/03/11 07:40:27;;;;;;;14.75;8.18;;;7.60;50.40;;;;;;5114606;28;20039;-63
2022/03/11 07:42:53;;;;;;;11.95;6.40;;;7.60;50.50;;;;;;5114515;28;20020;-63
2022/03/11 07:45:20;;;;;;;15.52;6.93;;;7.60;50.40;;;;;;5114480;28;20064;-63
2022/03/11 07:47:45;;;;;;;17.50;8.57;;;7.70;50.60;;;;;;5114431;28;20020;-63
2022/03/11 07:50:12;;;;;;;16.10;7.90;;;7.70;50.80;;;;;;5114282;28;20043;-64
2022/03/11 07:52:38;;;;;;;17.85;8.65;;;7.80;49.70;;;;;;5114301;28;20020;-63
2022/03/11 07:55:09;;;;;;;15.13;7.60;;;7.90;50.60;;;;;;5114273;28;20016;-63
2022/03/11 07:57:36;;;;;;;18.90;9.02;;;7.90;50.40;;;;;;5114212;28;20024;-63
2022/03/11 08:00:06;;;;;;;16.38;8.70;;;8.00;49.60;;;;;;5114043;28;20055;-63
2022/03/11 08:02:32;;;;;;;20.10;9.95;;;8.00;49.20;;;;;;5114199;28;20024;-63
2022/03/11 08:04:58;;;;;;;18.90;8.93;;;8.10;49.50;;;;;;5114053;28;20029;-63
2022/03/11 08:07:24;;;;;;;14.45;8.13;;;8.20;48.80;;;;;;5113313;28;20053;-63
2022/03/11 08:09:49;;;;;;;18.80;7.85;;;8.10;49.40;;;;;;5113942;28;20036;-63
2022/03/11 08:12:15;;;;;;;21.42;10.95;;;8.20;49.30;;;;;;5113998;28;20036;-63
2022/03/11 08:14:41;;;;;;;11.18;5.22;;;8.30;48.40;;;;;;5113946;28;20046;-63
2022/03/11 08:17:06;;;;;;;17.88;8.02;;;8.30;48.50;;;;;;5113896;28;20039;-64
2022/03/11 08:19:32;;;;;;;21.05;9.38;;;8.40;48.90;;;;;;5113848;28;20065;-63
2022/03/11 08:21:58;;;;;;;19.67;9.82;;;8.50;48.60;;;;;;5113836;28;20025;-63
2022/03/11 08:24:24;;;;;;;23.02;9.18;;;8.60;48.50;;;;;;5113717;28;20392;-63
2022/03/11 08:26:50;;;;;;;17.67;9.48;;;8.60;48.50;;;;;;5113772;28;20037;-64
2022/03/11 08:29:17;;;;;;;19.67;9.63;;;8.80;46.90;;;;;;5113639;28;20028;-64
2022/03/11 08:31:46;;;;;;;20.40;10.30;;;8.80;47.00;;;;;;5113683;28;20028;-64
2022/03/11 08:34:12;;;;;;;19.60;9.02;;;8.90;48.30;;;;;;5113724;28;20016;-63
2022/03/11 08:36:39;;;;;;;18.63;9.20;;;9.00;47.50;;;;;;5113599;28;20020;-63
2022/03/11 08:39:05;;;;;;;13.85;6.40;;;9.10;47.60;;;;;;5113608;28;20012;-64
2022/03/11 08:41:32;;;;;;;18.33;9.73;;;9.10;46.60;;;;;;5113574;28;20069;-63
2022/03/11 08:43:59;;;;;;;19.58;9.80;;;9.10;47.60;;;;;;5113569;28;20045;-63
2022/03/11 08:46:26;;;;;;;17.17;10.38;;;9.20;47.70;;;;;;5113487;28;20027;-63
2022/03/11 08:48:52;;;;;;;18.40;8.90;;;9.40;47.00;;;;;;5113485;28;20024;-64
2022/03/11 08:51:18;;;;;;;20.20;11.30;;;9.40;47.20;;;;;;5113344;28;20028;-63
2022/03/11 08:53:43;;;;;;;17.88;10.05;;;9.50;46.60;;;;;;5113356;28;20027;-63
2022/03/11 08:56:09;;;;;;;17.38;8.70;;;9.50;46.70;;;;;;5113376;28;20028;-63
2022/03/11 08:58:35;;;;;;;19.17;11.38;;;9.50;47.00;;;;;;5113188;28;20060;-64
2022/03/11 09:01:00;;;;;;;18.92;11.25;;;9.60;46.60;;;;;;5113380;28;20132;-63
2022/03/11 09:03:26;;;;;;;15.38;8.07;;;9.60;46.80;;;;;;5113264;28;20024;-63
2022/03/11 09:05:52;;;;;;;22.88;9.38;;;9.70;46.50;;;;;;5113298;28;20054;-63
2022/03/11 09:08:17;;;;;;;22.20;8.57;;;9.80;47.00;;;;;;5113274;28;20054;-63
2022/03/11 09:10:43;;;;;;;19.55;9.90;;;9.90;46.60;;;;;;5113149;28;20028;-63
2022/03/11 09:13:10;;;;;;;20.52;10.73;;;10.00;47.00;;;;;;5113221;28;20068;-63
2022/03/11 09:15:36;;;;;;;22.60;9.68;;;10.20;46.90;;;;;;5113207;28;20016;-63
2022/03/11 09:18:02;;;;;;;22.63;9.20;;;10.20;45.10;;;;;;5115446;28;20023;-63
2022/03/11 09:20:28;;;;;;;21.30;11.00;;;10.20;45.80;;;;;;5117321;28;20078;-63
2022/03/11 09:22:54;;;;;;;21.75;10.63;;;10.30;46.20;;;;;;5117178;28;20087;-63
2022/03/11 09:25:20;;;;;;;16.42;8.07;;;10.40;45.80;;;;;;5117130;28;20020;-63
2022/03/11 09:27:46;;;;;;;19.45;11.05;;;10.40;45.20;;;;;;5117160;28;20032;-63
2022/03/11 09:30:12;;;;;;;24.40;11.20;;;10.50;45.00;;;;;;5117181;28;20028;-63
2022/03/11 09:32:39;;;;;;;22.10;10.57;;;10.50;46.20;;;;;;5117071;28;20020;-63
2022/03/11 09:35:06;;;;;;;18.38;10.75;;;10.60;45.20;;;;;;5117060;28;20017;-63
2022/03/11 09:37:32;;;;;;;18.58;10.02;;;10.70;45.40;;;;;;5117006;28;20038;-63
2022/03/11 09:39:58;;;;;;;17.70;9.30;;;10.70;45.10;;;;;;5117036;28;20051;-63
2022/03/11 09:42:23;;;;;;;23.05;9.75;;;10.70;45.20;;;;;;5116849;28;20028;-63
2022/03/11 09:44:52;;;;;;;21.45;10.90;;;10.70;45.70;;;;;;5116847;28;20038;-63
2022/03/11 09:47:19;;;;;;;22.33;10.88;;;10.80;45.30;;;;;;5116817;28;20020;-63
2022/03/11 09:49:45;;;;;;;19.33;10.23;;;11.00;46.30;;;;;;5116794;28;20028;-63
2022/03/11 09:52:12;;;;;;;19.55;9.65;;;11.10;44.20;;;;;;5116712;28;20020;-63
2022/03/11 09:54:38;;;;;;;21.38;11.30;;;11.20;44.40;;;;;;5116643;28;20042;-63
2022/03/11 09:57:04;;;;;;;23.38;12.15;;;11.20;44.30;;;;;;5116463;28;20096;-63
2022/03/11 09:59:30;;;;;;;22.58;11.75;;;11.30;45.10;;;;;;5116392;28;20073;-63
2022/03/11 10:01:57;;;;;;;22.52;11.75;;;11.30;43.80;;;;;;5116538;28;20027;-63
2022/03/11 10:04:22;;;;;;;17.02;9.02;;;11.30;43.50;;;;;;5116470;28;20520;-63
2022/03/11 10:06:49;;;;;;;23.15;11.40;;;11.30;43.50;;;;;;5116411;28;20040;-63
2022/03/11 10:09:17;;;;;;;19.70;11.02;;;11.40;44.90;;;;;;5116299;28;20042;-63
2022/03/11 10:11:45;;;;;;;21.00;10.07;;;11.50;43.90;;;;;;5116317;28;20028;-63
2022/03/11 10:14:11;;;;;;;22.88;10.88;;;11.50;43.30;;;;;;5116295;28;20103;-63
2022/03/11 10:16:37;;;;;;;20.45;11.45;;;11.50;43.60;;;;;;5116194;28;20028;-63
2022/03/11 10:19:04;;;;;;;22.58;11.70;;;11.70;43.80;;;;;;5116180;28;20024;-64
2022/03/11 10:21:34;;;;;;;21.48;11.27;;;11.70;43.10;;;;;;5116061;28;20031;-63
2022/03/11 10:24:01;;;;;;;18.05;10.30;;;11.90;45.40;;;;;;5116057;28;20085;-63
2022/03/11 10:26:35;;;;;;;25.50;10.68;;;12.10;44.70;;;;;;5116088;28;20108;-63
2022/03/11 10:29:03;;;;;;;18.35;8.75;;;12.10;42.60;;;;;;5115246;28;20028;-64
2022/03/11 10:31:39;;;;;;;22.13;10.35;;;12.00;42.20;;;;;;5097936;28;20088;-64
2022/03/11 10:34:24;;;;;;;23.95;11.98;;;12.00;42.80;;;;;;5115914;28;20054;-64
2022/03/11 10:37:19;;;;;;;27.25;12.55;;;12.20;44.10;;;;;;5115845;28;20031;-64
2022/03/11 10:39:47;;;;;;;21.48;11.70;;;12.30;43.10;;;;;;5102870;28;20051;-64
2022/03/11 10:42:12;;;;;;;20.52;10.02;;;12.40;43.30;;;;;;5115834;28;20028;-64
2022/03/11 10:44:39;;;;;;;23.20;12.32;;;12.40;42.60;;;;;;5115707;28;20077;-64
2022/03/11 10:47:22;;;;;;;24.65;11.70;;;12.40;42.10;;;;;;5115679;28;20028;-64
2022/03/11 10:49:53;;;;;;;21.75;12.45;;;12.50;41.40;;;;;;5115527;28;20058;-64
2022/03/11 10:52:41;;;;;;;22.85;12.05;;;12.50;41.10;;;;;;5115453;28;20024;-64
2022/03/11 10:55:31;;;;;;;22.02;11.18;;;12.50;42.30;;;;;;5115487;28;20027;-64
2022/03/11 10:57:59;;;;;;;22.95;11.25;;;12.50;41.80;;;;;;5115258;28;20021;-64
2022/03/11 11:00:30;;;;;;;24.17;11.85;;;12.50;41.70;;;;;;5115526;28;20474;-64
2022/03/11 11:03:07;;;;;;;23.15;11.80;;;12.50;41.30;;;;;;5115444;28;20046;-64
2022/03/11 11:05:34;;;;;;;23.17;12.27;;;12.60;42.40;;;;;;5115303;28;20054;-64
2022/03/11 11:08:01;;;;;;;23.33;11.50;;;12.70;41.10;;;;;;5115230;28;20024;-64
2022/03/11 11:10:29;;;;;;;21.88;11.32;;;12.80;41.70;;;;;;5115150;28;20083;-64
2022/03/11 11:12:56;;;;;;;21.80;12.10;;;12.80;40.80;;;;;;5115167;28;20020;-64
2022/03/11 11:15:22;;;;;;;23.80;11.85;;;12.70;41.70;;;;;;5115120;28;20048;-64
2022/03/11 11:17:50;;;;;;;23.52;12.32;;;12.90;41.80;;;;;;5115030;28;20038;-64
2022/03/11 11:20:18;;;;;;;21.98;13.02;;;12.90;41.20;;;;;;5114999;28;20033;-64
2022/03/11 11:22:46;;;;;;;22.55;11.18;;;13.00;41.30;;;;;;5115020;28;20030;-64
2022/03/11 11:25:14;;;;;;;21.90;11.10;;;13.00;41.60;;;;;;5114816;28;20020;-64
2022/03/11 11:27:39;;;;;;;19.30;10.90;;;13.10;41.90;;;;;;5114758;28;20020;-64
2022/03/11 11:30:06;;;;;;;22.25;12.13;;;13.10;40.60;;;;;;5114659;28;20376;-64
2022/03/11 11:32:35;;;;;;;28.02;12.80;;;13.10;41.20;;;;;;5114870;28;20016;-64
2022/03/11 11:35:27;;;;;;;24.02;13.48;;;13.20;40.60;;;;;;5114703;28;20425;-64
2022/03/11 11:37:55;;;;;;;25.15;13.55;;;13.30;39.60;;;;;;5114667;28;20016;-64
2022/03/11 11:40:32;;;;;;;20.73;10.93;;;13.30;41.50;;;;;;5114447;28;20036;-64
2022/03/11 11:43:25;;;;;;;22.38;12.65;;;13.30;40.20;;;;;;5114546;28;20088;-64
2022/03/11 11:46:04;;;;;;;22.27;11.75;;;13.30;40.40;;;;;;5114518;28;20054;-64
2022/03/11 11:48:41;;;;;;;20.33;11.73;;;13.40;40.00;;;;;;5114481;28;20035;-64
2022/03/11 11:51:08;;;;;;;24.85;13.15;;;13.50;41.60;;;;;;5114362;28;20030;-64
2022/03/11 11:53:42;;;;;;;21.15;11.43;;;13.60;39.90;;;;;;5114355;28;20093;-64
2022/03/11 11:56:37;;;;;;;27.58;11.90;;;13.60;39.80;;;;;;5114364;28;20068;-64
2022/03/11 11:59:16;;;;;;;23.13;13.15;;;13.50;38.70;;;;;;5114136;28;20040;-64
2022/03/11 12:01:45;;;;;;;24.38;13.15;;;13.40;39.30;;;;;;5114394;28;20073;-64
2022/03/11 12:04:20;;;;;;;22.02;12.23;;;13.50;39.10;;;;;;5114178;28;20039;-64
2022/03/11 12:07:01;;;;;;;23.00;13.07;;;13.60;38.60;;;;;;5114142;28;20028;-64
2022/03/11 12:09:42;;;;;;;34.22;13.50;;;13.70;38.20;;;;;;5114034;28;20016;-64
2022/03/11 12:12:20;;;;;;;21.75;13.00;;;13.70;39.00;;;;;;5114072;28;20031;-64
2022/03/11 12:15:01;;;;;;;22.75;12.35;;;13.60;39.40;;;;;;5113980;28;20043;-64
2022/03/11 12:17:51;;;;;;;22.52;11.80;;;13.60;39.80;;;;;;5113965;28;20012;-63
2022/03/11 12:20:32;;;;;;;18.85;10.23;;;13.70;40.30;;;;;;5113966;28;20024;-63
2022/03/11 12:23:11;;;;;;;19.58;12.25;;;13.80;38.30;;;;;;5113831;28;20077;-64
2022/03/11 12:25:39;;;;;;;18.92;9.65;;;13.70;38.30;;;;;;5113833;28;20027;-63
2022/03/11 12:28:11;;;;;;;26.42;11.82;;;13.70;39.90;;;;;;5113755;28;20036;-64
2022/03/11 12:30:41;;;;;;;24.13;12.17;;;13.90;39.60;;;;;;5113826;28;20042;-63
2022/03/11 12:33:09;;;;;;;27.60;13.82;;;14.10;39.10;;;;;;5113687;28;20265;-63
2022/03/11 12:35:36;;;;;;;23.67;11.75;;;14.20;37.80;;;;;;5113645;28;20012;-64
2022/03/11 12:38:04;;;;;;;22.20;11.73;;;14.20;39.40;;;;;;5113571;28;20028;-63
2022/03/11 12:40:30;;;;;;;20.23;11.18;;;14.30;40.40;;;;;;5113598;28;20020;-64
2022/03/11 12:43:02;;;;;;;21.65;12.05;;;14.30;38.90;;;;;;5113491;28;20043;-64